createdAt,value
2018-10-09T00:00:25.572Z,13.69
2018-10-09T00:01:25.566Z,13.63
2018-10-09T00:02:25.565Z,13.62
2018-10-09T00:03:25.570Z,13.56
2018-10-09T00:04:25.558Z,13.63
2018-10-09T00:05:25.554Z,13.59
2018-10-09T00:06:25.547Z,13.54
2018-10-09T00:07:25.546Z,13.69
2018-10-09T00:08:25.542Z,13.55
2018-10-09T00:09:25.538Z,13.56
2018-10-09T00:10:25.536Z,13.59
2018-10-09T00:11:25.531Z,13.62
2018-10-09T00:12:25.525Z,13.61
2018-10-09T00:13:25.527Z,13.58
2018-10-09T00:14:25.516Z,13.59
2018-10-09T00:15:25.514Z,13.58
2018-10-09T00:16:25.517Z,13.58
2018-10-09T00:17:25.515Z,13.59
2018-10-09T00:18:25.506Z,13.55
2018-10-09T00:19:25.514Z,13.61
2018-10-09T00:20:25.493Z,13.58
2018-10-09T00:21:25.514Z,13.56
2018-10-09T00:22:25.486Z,13.59
2018-10-09T00:23:25.481Z,13.58
2018-10-09T00:24:25.478Z,13.59
2018-10-09T00:25:25.477Z,13.55
2018-10-09T00:26:25.472Z,13.58
2018-10-09T00:27:25.465Z,13.62
2018-10-09T00:28:25.471Z,13.56
2018-10-09T00:29:25.457Z,13.54
2018-10-09T00:30:25.454Z,13.62
2018-10-09T00:31:25.448Z,13.56
2018-10-09T00:32:25.452Z,13.61
2018-10-09T00:33:25.442Z,13.61
2018-10-09T00:34:25.438Z,13.54
2018-10-09T00:35:25.434Z,13.54
2018-10-09T00:36:25.434Z,13.61
2018-10-09T00:37:25.424Z,13.63
2018-10-09T00:38:25.425Z,13.63
2018-10-09T00:39:25.419Z,13.59
2018-10-09T00:40:25.413Z,13.59
2018-10-09T00:41:25.409Z,13.61
2018-10-09T00:42:25.407Z,13.59
2018-10-09T00:43:25.402Z,13.61
2018-10-09T00:44:25.396Z,13.55
2018-10-09T00:45:25.393Z,13.56
2018-10-09T00:46:25.389Z,13.62
2018-10-09T00:47:25.386Z,13.54
2018-10-09T00:48:25.383Z,13.55
2018-10-09T00:49:25.376Z,13.54
2018-10-09T00:50:25.399Z,13.65
2018-10-09T00:51:25.377Z,13.61
2018-10-09T00:52:25.367Z,13.58
2018-10-09T00:53:25.366Z,13.58
2018-10-09T00:54:25.356Z,13.55
2018-10-09T00:55:25.350Z,13.56
2018-10-09T00:56:25.342Z,13.55
2018-10-09T00:57:25.345Z,13.49
2018-10-09T00:58:25.340Z,13.44
2018-10-09T00:59:25.336Z,13.51
2018-10-09T01:00:25.336Z,13.40
2018-10-09T01:01:25.345Z,13.44
2018-10-09T01:02:25.324Z,13.54
2018-10-09T01:03:25.324Z,13.56
2018-10-09T01:04:25.334Z,13.47
2018-10-09T01:05:25.312Z,13.55
2018-10-09T01:06:25.309Z,13.52
2018-10-09T01:07:25.304Z,13.52
2018-10-09T01:08:25.301Z,13.52
2018-10-09T01:09:25.323Z,13.51
2018-10-09T01:10:25.308Z,13.52
2018-10-09T01:11:25.287Z,13.52
2018-10-09T01:12:25.285Z,13.51
2018-10-09T01:13:25.284Z,13.55
2018-10-09T01:14:25.279Z,13.52
2018-10-09T01:15:25.270Z,13.47
2018-10-09T01:16:25.270Z,13.47
2018-10-09T01:17:25.264Z,13.49
2018-10-09T01:18:25.262Z,13.49
2018-10-09T01:19:25.264Z,13.51
2018-10-09T01:20:25.252Z,13.54
2018-10-09T01:21:25.264Z,13.51
2018-10-09T01:22:25.245Z,13.47
2018-10-09T01:23:25.238Z,13.54
2018-10-09T01:24:25.238Z,13.49
2018-10-09T01:25:25.238Z,13.54
2018-10-09T01:26:25.227Z,13.56
2018-10-09T01:27:25.234Z,13.56
2018-10-09T01:28:25.220Z,13.54
2018-10-09T02:10:15.689Z,13.40
2018-10-09T02:11:15.659Z,13.47
2018-10-09T02:13:08.598Z,13.47
2018-10-09T02:14:08.550Z,13.43
2018-10-09T02:16:01.469Z,13.41
2018-10-09T02:17:01.451Z,13.47
2018-10-09T02:18:54.356Z,13.54
2018-10-09T02:19:54.331Z,13.47
2018-10-09T02:21:47.270Z,13.52
2018-10-09T02:22:47.252Z,13.58
2018-10-09T02:24:40.180Z,13.51
2018-10-09T02:25:40.134Z,13.51
2018-10-09T02:27:33.050Z,13.56
2018-10-09T02:28:33.034Z,13.58
2018-10-09T02:30:25.968Z,13.55
2018-10-09T02:31:25.943Z,13.54
2018-10-09T02:33:18.848Z,13.59
2018-10-09T02:34:18.835Z,13.55
2018-10-09T02:36:11.789Z,13.63
2018-10-09T02:37:11.765Z,13.58
2018-10-09T02:39:04.668Z,13.62
2018-10-09T02:40:04.659Z,13.56
2018-10-09T02:41:57.570Z,13.52
2018-10-09T02:42:57.563Z,13.55
2018-10-09T02:44:50.483Z,13.58
2018-10-09T02:45:50.456Z,13.55
2018-10-09T02:47:43.378Z,13.55
2018-10-09T02:48:43.364Z,13.55
2018-10-09T02:50:36.288Z,13.54
2018-10-09T02:51:36.264Z,13.49
2018-10-09T02:53:29.198Z,13.56
2018-10-09T02:54:29.186Z,13.58
2018-10-09T02:56:22.127Z,13.56
2018-10-09T02:57:22.097Z,13.58
2018-10-09T02:59:15.015Z,13.61
2018-10-09T03:00:15.003Z,13.56
2018-10-09T03:02:07.919Z,13.62
2018-10-09T03:03:07.899Z,13.58
2018-10-09T03:05:00.809Z,13.62
2018-10-09T03:06:00.799Z,13.56
2018-10-09T03:07:53.709Z,13.61
2018-10-09T03:08:53.687Z,13.59
2018-10-09T03:10:46.582Z,13.63
2018-10-09T03:11:46.565Z,13.61
2018-10-09T03:13:39.526Z,13.63
2018-10-09T03:14:39.453Z,13.59
2018-10-09T03:16:32.364Z,13.62
2018-10-09T03:17:32.351Z,13.59
2018-10-09T03:19:25.297Z,13.59
2018-10-09T03:20:25.256Z,13.59
2018-10-09T03:22:18.185Z,13.70
2018-10-09T03:23:18.161Z,13.59
2018-10-09T03:25:11.081Z,13.62
2018-10-09T03:26:11.081Z,13.59
2018-10-09T03:28:03.980Z,13.63
2018-10-09T03:29:03.966Z,13.61
2018-10-09T03:30:56.886Z,13.65
2018-10-09T03:31:56.876Z,13.65
2018-10-09T03:32:56.871Z,13.65
2018-10-09T03:33:56.865Z,13.63
2018-10-09T03:34:56.864Z,13.61
2018-10-09T03:35:56.857Z,13.77
2018-10-09T03:36:56.852Z,13.63
2018-10-09T03:37:56.848Z,13.73
2018-10-09T03:38:56.846Z,13.69
2018-10-09T03:39:56.842Z,13.69
2018-10-09T03:40:56.840Z,13.67
2018-10-09T03:41:56.835Z,13.67
2018-10-09T03:42:56.834Z,13.79
2018-10-09T03:43:56.832Z,13.77
2018-10-09T03:44:56.824Z,13.76
2018-10-09T03:45:56.819Z,13.71
2018-10-09T03:46:56.814Z,13.73
2018-10-09T03:47:56.813Z,13.67
2018-10-09T03:48:56.800Z,13.70
2018-10-09T03:49:56.807Z,13.63
2018-10-09T03:50:56.801Z,13.70
2018-10-09T03:51:56.797Z,13.69
2018-10-09T03:52:56.794Z,13.73
2018-10-09T03:53:56.790Z,13.62
2018-10-09T03:54:56.786Z,13.76
2018-10-09T03:55:56.786Z,13.59
2018-10-09T03:56:56.780Z,13.56
2018-10-09T03:57:56.777Z,13.61
2018-10-09T03:58:56.769Z,13.59
2018-10-09T03:59:56.768Z,13.61
2018-10-09T04:00:56.762Z,13.59
2018-10-09T04:01:56.760Z,13.56
2018-10-09T04:02:56.755Z,13.62
2018-10-09T04:03:56.752Z,13.70
2018-10-09T04:04:56.749Z,13.61
2018-10-09T04:05:56.744Z,13.67
2018-10-09T04:06:56.741Z,13.61
2018-10-09T04:07:56.739Z,13.59
2018-10-09T04:08:56.747Z,13.58
2018-10-09T04:09:56.729Z,13.59
2018-10-09T04:10:56.725Z,13.54
2018-10-09T04:11:56.734Z,13.61
2018-10-09T04:12:56.718Z,13.61
2018-10-09T04:13:56.714Z,13.59
2018-10-09T04:14:56.711Z,13.67
2018-10-09T04:15:56.731Z,13.61
2018-10-09T04:16:56.701Z,13.56
2018-10-09T04:17:56.699Z,13.43
2018-10-09T04:18:56.700Z,13.63
2018-10-09T04:19:56.701Z,13.61
2018-10-09T04:20:56.686Z,13.56
2018-10-09T04:21:56.687Z,13.59
2018-10-09T04:22:56.684Z,13.55
2018-10-09T04:23:56.674Z,13.62
2018-10-09T04:24:56.675Z,13.58
2018-10-09T04:25:56.667Z,13.58
2018-10-09T04:26:56.667Z,13.59
2018-10-09T04:27:56.657Z,13.56
2018-10-09T04:28:56.656Z,13.70
2018-10-09T04:29:56.656Z,13.65
2018-10-09T04:30:56.648Z,13.73
2018-10-09T04:31:56.663Z,13.63
2018-10-09T04:32:56.639Z,13.73
2018-10-09T04:33:56.639Z,13.61
2018-10-09T04:34:56.630Z,13.69
2018-10-09T04:35:56.630Z,13.65
2018-10-09T04:36:56.631Z,13.69
2018-10-09T04:37:56.624Z,13.69
2018-10-09T04:38:56.648Z,13.71
2018-10-09T04:39:56.654Z,13.74
2018-10-09T04:40:56.616Z,13.69
2018-10-09T04:41:56.631Z,13.80
2018-10-09T04:42:56.613Z,13.81
2018-10-09T04:43:56.618Z,13.70
2018-10-09T04:44:56.621Z,13.77
2018-10-09T04:45:56.606Z,13.70
2018-10-09T04:46:56.600Z,13.76
2018-10-09T04:47:56.584Z,13.71
2018-10-09T04:48:56.608Z,13.80
2018-10-09T04:49:56.610Z,13.80
2018-10-09T04:50:56.587Z,13.76
2018-10-09T04:51:56.595Z,13.70
2018-10-09T04:52:56.652Z,13.63
2018-10-09T04:53:56.564Z,13.73
2018-10-09T04:54:56.560Z,13.70
2018-10-09T04:55:56.551Z,13.69
2018-10-09T04:56:56.552Z,13.67
2018-10-09T04:57:56.546Z,13.76
2018-10-09T04:58:56.630Z,13.65
2018-10-09T04:59:56.567Z,13.69
2018-10-09T05:00:56.610Z,13.71
2018-10-09T05:01:56.529Z,13.70
2018-10-09T05:02:56.530Z,13.67
2018-10-09T05:03:56.534Z,13.70
2018-10-09T05:04:56.520Z,13.69
2018-10-09T05:05:56.518Z,13.73
2018-10-09T05:06:56.526Z,13.80
2018-10-09T05:07:56.512Z,13.80
2018-10-09T05:08:56.508Z,13.76
2018-10-09T05:09:56.500Z,13.79
2018-10-09T05:10:56.500Z,13.80
2018-10-09T05:11:56.506Z,13.79
2018-10-09T05:12:56.489Z,13.80
2018-10-09T05:13:56.487Z,13.80
2018-10-09T05:14:56.484Z,13.83
2018-10-09T05:15:56.484Z,13.80
2018-10-09T05:16:56.479Z,13.76
2018-10-09T05:17:56.471Z,13.79
2018-10-09T05:18:56.483Z,13.73
2018-10-09T05:19:56.463Z,13.79
2018-10-09T05:20:56.461Z,13.80
2018-10-09T05:21:56.470Z,13.76
2018-10-09T05:22:56.465Z,13.76
2018-10-09T05:23:56.483Z,13.74
2018-10-09T05:24:56.447Z,13.65
2018-10-09T05:25:56.440Z,13.63
2018-10-09T05:26:56.442Z,13.67
2018-10-09T05:27:56.433Z,13.74
2018-10-09T05:28:56.456Z,13.67
2018-10-09T05:29:56.428Z,13.65
2018-10-09T05:30:56.442Z,13.63
2018-10-09T05:31:56.436Z,13.63
2018-10-09T05:32:56.420Z,13.79
2018-10-09T05:33:56.417Z,13.74
2018-10-09T05:34:56.409Z,13.63
2018-10-09T05:35:56.402Z,13.65
2018-10-09T05:36:56.407Z,13.61
2018-10-09T05:37:56.392Z,13.59
2018-10-09T05:38:56.393Z,13.58
2018-10-09T05:39:56.385Z,13.58
2018-10-09T05:40:56.391Z,13.61
2018-10-09T05:41:56.382Z,13.54
2018-10-09T05:42:56.378Z,13.56
2018-10-09T05:43:56.378Z,13.55
2018-10-09T05:44:56.368Z,13.61
2018-10-09T05:45:56.397Z,13.69
2018-10-09T05:46:56.364Z,13.63
2018-10-09T05:47:56.356Z,13.70
2018-10-09T05:48:56.369Z,13.63
2018-10-09T05:49:56.357Z,13.67
2018-10-09T05:50:56.351Z,13.65
2018-10-09T05:51:56.347Z,13.67
2018-10-09T05:52:56.340Z,13.69
2018-10-09T05:53:56.341Z,13.71
2018-10-09T05:54:56.332Z,13.79
2018-10-09T05:55:56.329Z,13.77
2018-10-09T05:56:56.336Z,13.74
2018-10-09T05:57:56.332Z,13.76
2018-10-09T05:58:56.337Z,13.84
2018-10-09T05:59:56.316Z,13.79
2018-10-09T06:00:56.306Z,13.79
2018-10-09T06:01:56.308Z,13.83
2018-10-09T06:02:56.304Z,13.76
2018-10-09T06:03:56.313Z,13.80
2018-10-09T06:04:56.295Z,13.77
2018-10-09T06:05:56.312Z,13.79
2018-10-09T06:06:56.288Z,13.83
2018-10-09T06:07:56.392Z,13.88
2018-10-09T06:08:56.287Z,13.95
2018-10-09T06:09:56.276Z,13.94
2018-10-09T06:10:56.273Z,13.98
2018-10-09T06:11:56.270Z,13.96
2018-10-09T06:12:56.293Z,13.96
2018-10-09T06:13:56.263Z,14.10
2018-10-09T06:14:56.261Z,14.09
2018-10-09T06:15:56.310Z,14.10
2018-10-09T06:16:56.244Z,14.09
2018-10-09T06:17:56.247Z,14.09
2018-10-09T06:18:56.246Z,14.14
2018-10-09T06:19:56.243Z,14.10
2018-10-09T06:20:56.239Z,14.16
2018-10-09T06:21:56.234Z,14.13
2018-10-09T06:22:56.230Z,14.14
2018-10-09T06:23:56.226Z,14.12
2018-10-09T06:24:56.242Z,14.19
2018-10-09T06:25:56.220Z,14.24
2018-10-09T06:26:56.216Z,14.29
2018-10-09T06:27:56.304Z,14.32
2018-10-09T06:28:56.211Z,14.35
2018-10-09T06:29:56.204Z,14.43
2018-10-09T06:30:56.203Z,14.39
2018-10-09T06:31:56.196Z,14.47
2018-10-09T06:32:56.209Z,14.44
2018-10-09T06:33:56.239Z,14.43
2018-10-09T06:34:56.185Z,14.44
2018-10-09T06:35:56.184Z,14.47
2018-10-09T06:36:56.214Z,14.50
2018-10-09T06:37:56.183Z,14.54
2018-10-09T06:38:56.173Z,14.64
2018-10-09T06:39:56.172Z,14.65
2018-10-09T06:40:56.176Z,14.69
2018-10-09T06:41:56.175Z,14.71
2018-10-09T06:42:56.259Z,14.72
2018-10-09T06:43:56.177Z,14.74
2018-10-09T06:44:56.159Z,14.68
2018-10-09T06:45:56.156Z,14.74
2018-10-09T06:46:56.155Z,14.80
2018-10-09T06:47:56.153Z,14.86
2018-10-09T06:48:56.143Z,14.90
2018-10-09T06:49:56.151Z,14.86
2018-10-09T06:50:56.140Z,14.91
2018-10-09T06:51:56.135Z,14.95
2018-10-09T06:52:56.142Z,15.03
2018-10-09T06:53:56.407Z,15.05
2018-10-09T06:54:56.168Z,15.17
2018-10-09T06:55:56.120Z,15.30
2018-10-09T06:56:56.129Z,15.27
2018-10-09T06:57:56.138Z,15.31
2018-10-09T06:58:56.117Z,15.36
2018-10-09T06:59:56.125Z,15.30
2018-10-09T07:00:56.104Z,15.30
2018-10-09T07:01:56.098Z,15.27
2018-10-09T07:02:56.103Z,15.28
2018-10-09T07:03:56.108Z,15.35
2018-10-09T07:04:56.103Z,15.39
2018-10-09T07:05:56.096Z,15.30
2018-10-09T07:06:56.092Z,15.38
2018-10-09T07:07:56.092Z,15.33
2018-10-09T07:08:56.089Z,15.52
2018-10-09T07:09:56.094Z,15.41
2018-10-09T07:10:56.145Z,15.39
2018-10-09T07:11:56.088Z,15.48
2018-10-09T07:12:56.072Z,15.26
2018-10-09T07:13:56.069Z,15.33
2018-10-09T07:14:56.088Z,15.28
2018-10-09T07:15:56.096Z,15.21
2018-10-09T07:16:56.124Z,15.09
2018-10-09T07:17:56.063Z,15.13
2018-10-09T07:18:56.057Z,15.15
2018-10-09T07:19:56.057Z,15.09
2018-10-09T07:20:56.053Z,15.19
2018-10-09T07:21:56.055Z,15.09
2018-10-09T07:22:56.048Z,15.06
2018-10-09T07:23:56.045Z,15.20
2018-10-09T07:24:56.044Z,15.13
2018-10-09T07:25:56.060Z,15.24
2018-10-09T07:26:56.036Z,15.24
2018-10-09T07:27:56.098Z,15.31
2018-10-09T07:28:56.029Z,15.30
2018-10-09T07:29:56.027Z,15.31
2018-10-09T07:30:56.025Z,15.35
2018-10-09T07:31:56.026Z,15.43
2018-10-09T07:32:56.019Z,15.41
2018-10-09T07:33:56.015Z,15.36
2018-10-09T07:34:56.013Z,15.43
2018-10-09T07:35:56.011Z,15.43
2018-10-09T07:36:56.014Z,15.33
2018-10-09T07:37:56.006Z,15.27
2018-10-09T07:38:56.001Z,15.31
2018-10-09T07:39:56.005Z,15.49
2018-10-09T07:40:55.996Z,15.51
2018-10-09T07:41:56.004Z,15.56
2018-10-09T07:42:56.018Z,15.68
2018-10-09T07:43:56.015Z,15.66
2018-10-09T07:44:55.989Z,15.74
2018-10-09T07:45:55.986Z,15.68
2018-10-09T07:46:55.980Z,15.76
2018-10-09T07:47:55.984Z,15.66
2018-10-09T07:48:55.998Z,15.94
2018-10-09T07:49:55.975Z,15.94
2018-10-09T07:50:55.987Z,15.86
2018-10-09T07:51:55.975Z,15.79
2018-10-09T07:52:56.072Z,15.86
2018-10-09T07:53:55.965Z,15.96
2018-10-09T07:54:55.995Z,15.89
2018-10-09T07:55:55.977Z,16.01
2018-10-09T07:56:55.966Z,15.99
2018-10-09T07:57:55.956Z,15.93
2018-10-09T07:58:55.964Z,15.82
2018-10-09T07:59:55.960Z,15.88
2018-10-09T08:00:55.949Z,15.86
2018-10-09T08:01:55.949Z,16.01
2018-10-09T08:02:55.948Z,16.25
2018-10-09T08:03:55.943Z,16.23
2018-10-09T08:04:55.944Z,16.25
2018-10-09T08:05:55.942Z,16.38
2018-10-09T08:06:55.941Z,16.48
2018-10-09T08:07:55.937Z,16.52
2018-10-09T08:08:55.937Z,16.62
2018-10-09T08:09:55.935Z,16.77
2018-10-09T08:10:55.995Z,16.45
2018-10-09T08:11:55.930Z,16.34
2018-10-09T08:12:55.930Z,16.41
2018-10-09T08:13:55.934Z,16.68
2018-10-09T08:14:55.927Z,16.81
2018-10-09T08:15:55.926Z,17.03
2018-10-09T08:16:55.923Z,17.15
2018-10-09T08:17:55.925Z,17.29
2018-10-09T08:18:55.925Z,17.40
2018-10-09T08:19:55.923Z,17.51
2018-10-09T08:20:55.921Z,17.66
2018-10-09T08:21:55.930Z,17.59
2018-10-09T08:22:55.995Z,17.63
2018-10-09T08:23:55.917Z,17.69
2018-10-09T08:24:55.921Z,17.99
2018-10-09T08:25:55.915Z,18.28
2018-10-09T08:26:55.918Z,18.40
2018-10-09T08:27:55.927Z,18.44
2018-10-09T08:28:55.915Z,18.64
2018-10-09T08:29:55.919Z,18.64
2018-10-09T08:30:55.915Z,18.64
2018-10-09T08:31:55.918Z,18.80
2018-10-09T08:32:55.916Z,19.24
2018-10-09T08:33:55.920Z,19.28
2018-10-09T08:34:55.920Z,19.20
2018-10-09T08:35:55.919Z,19.17
2018-10-09T08:36:55.922Z,19.29
2018-10-09T08:37:55.924Z,19.80
2018-10-09T08:38:55.923Z,20.41
2018-10-09T08:39:55.925Z,21.02
2018-10-09T08:40:55.930Z,21.08
2018-10-09T08:41:55.930Z,21.35
2018-10-09T08:42:55.932Z,21.32
2018-10-09T08:43:55.934Z,21.63
2018-10-09T08:44:55.936Z,21.63
2018-10-09T08:45:55.939Z,21.34
2018-10-09T08:46:55.959Z,21.71
2018-10-09T08:47:55.947Z,23.04
2018-10-09T08:48:55.952Z,23.34
2018-10-09T08:49:55.955Z,22.84
2018-10-09T08:50:55.964Z,23.23
2018-10-09T08:51:55.998Z,23.64
2018-10-09T08:52:55.966Z,24.13
2018-10-09T08:53:55.999Z,24.20
2018-10-09T08:54:55.976Z,22.87
2018-10-09T08:55:56.019Z,22.04
2018-10-09T08:56:55.990Z,20.96
2018-10-09T08:57:55.993Z,20.41
2018-10-09T08:58:56.235Z,21.35
2018-10-09T08:59:56.002Z,22.12
2018-10-09T09:00:56.008Z,21.26
2018-10-09T09:01:56.017Z,20.80
2018-10-09T09:02:56.019Z,20.65
2018-10-09T09:03:56.027Z,20.24
2018-10-09T09:04:56.031Z,20.43
2018-10-09T09:05:56.038Z,20.87
2018-10-09T09:06:56.044Z,21.60
2018-10-09T09:07:56.044Z,22.19
2018-10-09T09:08:56.076Z,22.34
2018-10-09T09:09:56.052Z,23.12
2018-10-09T09:10:56.059Z,22.83
2018-10-09T09:11:56.070Z,23.98
2018-10-09T09:12:56.072Z,23.83
2018-10-09T09:13:56.140Z,23.92
2018-10-09T09:14:56.083Z,24.34
2018-10-09T09:15:56.084Z,25.10
2018-10-09T09:16:56.099Z,24.83
2018-10-09T09:17:56.097Z,25.59
2018-10-09T09:18:56.108Z,25.42
2018-10-09T09:19:56.109Z,24.38
2018-10-09T09:20:56.153Z,23.68
2018-10-09T09:21:56.124Z,22.46
2018-10-09T09:22:56.129Z,21.92
2018-10-09T09:23:56.146Z,21.71
2018-10-09T09:24:56.144Z,21.69
2018-10-09T09:25:56.151Z,21.75
2018-10-09T09:26:56.216Z,21.36
2018-10-09T09:27:56.159Z,21.32
2018-10-09T09:28:56.168Z,21.34
2018-10-09T09:29:56.172Z,21.35
2018-10-09T09:30:56.177Z,21.27
2018-10-09T09:31:56.182Z,21.51
2018-10-09T09:32:56.190Z,21.51
2018-10-09T09:33:56.189Z,21.34
2018-10-09T09:34:56.193Z,20.79
2018-10-09T09:35:56.204Z,20.93
2018-10-09T09:36:56.202Z,21.08
2018-10-09T09:37:56.204Z,21.26
2018-10-09T09:38:56.213Z,21.29
2018-10-09T09:39:56.246Z,21.36
2018-10-09T09:40:56.214Z,20.99
2018-10-09T09:41:56.223Z,20.28
2018-10-09T09:42:56.227Z,20.51
2018-10-09T09:43:56.239Z,20.65
2018-10-09T09:44:56.231Z,20.76
2018-10-09T09:45:56.356Z,21.13
2018-10-09T09:46:56.242Z,21.13
2018-10-09T09:47:56.242Z,20.74
2018-10-09T09:48:56.248Z,20.89
2018-10-09T09:49:56.246Z,20.90
2018-10-09T09:50:56.253Z,20.69
2018-10-09T09:51:56.293Z,20.34
2018-10-09T09:52:56.257Z,20.30
2018-10-09T09:53:56.259Z,19.93
2018-10-09T09:54:56.263Z,20.18
2018-10-09T09:55:56.269Z,20.23
2018-10-09T09:56:56.272Z,20.35
2018-10-09T09:57:56.356Z,20.79
2018-10-09T09:58:56.465Z,20.65
2018-10-09T09:59:56.278Z,20.56
2018-10-09T10:00:56.281Z,20.33
2018-10-09T10:01:56.283Z,20.02
2018-10-09T10:02:56.288Z,20.16
2018-10-09T10:03:56.292Z,20.16
2018-10-09T10:04:56.286Z,20.12
2018-10-09T10:05:56.293Z,19.79
2018-10-09T10:06:56.299Z,19.43
2018-10-09T10:07:56.300Z,19.31
2018-10-09T10:08:56.302Z,19.35
2018-10-09T10:09:56.302Z,19.25
2018-10-09T10:10:56.305Z,19.33
2018-10-09T10:11:56.309Z,19.70
2018-10-09T10:12:56.309Z,19.83
2018-10-09T10:13:56.316Z,19.76
2018-10-09T10:14:56.315Z,20.34
2018-10-09T10:15:56.428Z,21.30
2018-10-09T10:16:56.320Z,22.23
2018-10-09T10:17:56.327Z,22.77
2018-10-09T10:18:56.326Z,23.22
2018-10-09T10:19:56.330Z,23.07
2018-10-09T10:20:56.332Z,22.67
2018-10-09T10:21:56.398Z,22.78
2018-10-09T10:22:56.376Z,22.56
2018-10-09T10:23:56.339Z,22.09
2018-10-09T10:24:56.365Z,21.51
2018-10-09T10:25:56.345Z,21.08
2018-10-09T10:26:56.358Z,20.87
2018-10-09T10:27:56.368Z,20.98
2018-10-09T10:28:56.386Z,20.95
2018-10-09T10:29:56.381Z,21.17
2018-10-09T10:30:56.379Z,21.63
2018-10-09T10:31:56.406Z,21.91
2018-10-09T10:32:56.387Z,22.12
2018-10-09T10:33:56.388Z,22.54
2018-10-09T10:34:56.394Z,22.54
2018-10-09T10:35:56.397Z,21.99
2018-10-09T10:36:56.406Z,21.30
2018-10-09T10:37:56.406Z,21.34
2018-10-09T10:38:56.412Z,20.90
2018-10-09T10:39:56.420Z,20.84
2018-10-09T10:40:56.431Z,20.58
2018-10-09T10:41:56.429Z,20.95
2018-10-09T10:42:56.426Z,20.64
2018-10-09T10:43:56.439Z,20.27
2018-10-09T10:44:56.461Z,19.98
2018-10-09T10:45:56.443Z,19.73
2018-10-09T10:46:56.449Z,19.79
2018-10-09T10:47:56.455Z,19.91
2018-10-09T10:48:56.477Z,20.35
2018-10-09T10:49:56.461Z,20.21
2018-10-09T10:50:56.462Z,20.13
2018-10-09T10:51:56.465Z,19.73
2018-10-09T10:52:56.467Z,19.83
2018-10-09T10:53:56.478Z,19.65
2018-10-09T10:54:56.529Z,19.70
2018-10-09T10:55:56.478Z,19.80
2018-10-09T10:56:56.481Z,19.63
2018-10-09T10:57:56.501Z,19.57
2018-10-09T10:58:56.487Z,19.69
2018-10-09T10:59:56.491Z,19.78
2018-10-09T11:00:56.495Z,19.68
2018-10-09T11:01:56.578Z,19.73
2018-10-09T11:02:56.496Z,19.33
2018-10-09T11:03:56.512Z,19.35
2018-10-09T11:04:56.505Z,19.05
2018-10-09T11:05:56.522Z,18.82
2018-10-09T11:06:56.506Z,18.98
2018-10-09T11:07:56.569Z,19.05
2018-10-09T11:08:56.505Z,18.94
2018-10-09T11:09:56.512Z,19.15
2018-10-09T11:10:56.512Z,19.15
2018-10-09T11:11:56.523Z,19.35
2018-10-09T11:12:56.544Z,19.31
2018-10-09T11:13:56.532Z,19.13
2018-10-09T11:14:56.516Z,18.99
2018-10-09T11:15:56.521Z,18.80
2018-10-09T11:16:56.522Z,18.74
2018-10-09T11:17:56.528Z,18.84
2018-10-09T11:18:56.526Z,18.84
2018-10-09T11:19:56.528Z,18.77
2018-10-09T11:20:56.540Z,18.99
2018-10-09T11:21:56.531Z,19.15
2018-10-09T11:22:56.543Z,19.18
2018-10-09T11:23:56.532Z,19.40
2018-10-09T11:24:56.534Z,19.31
2018-10-09T11:25:56.547Z,19.23
2018-10-09T11:26:56.537Z,19.24
2018-10-09T11:27:56.535Z,18.97
2018-10-09T11:28:56.536Z,18.79
2018-10-09T11:29:56.542Z,18.79
2018-10-09T11:30:56.575Z,18.91
2018-10-09T11:31:56.538Z,19.14
2018-10-09T11:32:56.573Z,18.86
2018-10-09T11:33:56.543Z,18.82
2018-10-09T11:34:56.558Z,18.91
2018-10-09T11:35:56.546Z,19.15
2018-10-09T11:36:56.537Z,19.78
2018-10-09T11:37:56.545Z,19.47
2018-10-09T11:38:56.550Z,19.28
2018-10-09T11:39:56.549Z,19.24
2018-10-09T11:40:56.547Z,19.15
2018-10-09T11:41:56.547Z,19.38
2018-10-09T11:42:56.686Z,19.51
2018-10-09T11:43:56.550Z,19.72
2018-10-09T11:44:56.557Z,19.40
2018-10-09T11:45:56.553Z,19.32
2018-10-09T11:46:56.557Z,19.25
2018-10-09T11:47:56.556Z,19.38
2018-10-09T11:48:56.572Z,19.40
2018-10-09T11:49:56.563Z,19.40
2018-10-09T11:50:56.553Z,19.50
2018-10-09T11:51:56.560Z,19.65
2018-10-09T11:52:56.564Z,19.86
2018-10-09T11:53:56.565Z,19.95
2018-10-09T11:54:56.565Z,20.06
2018-10-09T11:55:56.567Z,19.90
2018-10-09T11:56:56.566Z,19.90
2018-10-09T11:57:56.568Z,19.46
2018-10-09T11:58:56.628Z,19.40
2018-10-09T11:59:56.574Z,19.50
2018-10-09T12:00:56.575Z,19.60
2018-10-09T12:01:56.581Z,19.73
2018-10-09T12:02:56.621Z,20.10
2018-10-09T12:03:56.577Z,21.76
2018-10-09T12:04:56.580Z,22.93
2018-10-09T12:05:56.583Z,24.19
2018-10-09T12:06:56.586Z,23.71
2018-10-09T12:07:56.585Z,22.19
2018-10-09T12:08:56.590Z,21.61
2018-10-09T12:09:56.615Z,21.04
2018-10-09T12:10:56.599Z,21.14
2018-10-09T12:11:56.600Z,20.84
2018-10-09T12:12:56.605Z,20.59
2018-10-09T12:13:56.609Z,20.53
2018-10-09T12:14:56.611Z,20.68
2018-10-09T12:15:56.685Z,20.23
2018-10-09T12:16:56.617Z,20.12
2018-10-09T12:17:56.611Z,20.23
2018-10-09T12:18:56.626Z,20.20
2018-10-09T12:19:56.628Z,20.41
2018-10-09T12:20:56.627Z,20.09
2018-10-09T12:21:56.633Z,19.84
2018-10-09T12:22:56.635Z,19.66
2018-10-09T12:23:56.643Z,19.63
2018-10-09T12:24:56.643Z,19.43
2018-10-09T12:25:56.654Z,19.73
2018-10-09T12:26:56.657Z,19.33
2018-10-09T12:27:56.647Z,19.14
2018-10-09T12:28:56.656Z,18.70
2018-10-09T12:29:56.656Z,18.67
2018-10-09T12:30:56.656Z,18.82
2018-10-09T12:31:56.646Z,19.01
2018-10-09T12:32:56.667Z,18.98
2018-10-09T12:33:56.657Z,19.11
2018-10-09T12:34:56.660Z,19.15
2018-10-09T12:35:56.660Z,19.15
2018-10-09T12:36:56.660Z,18.98
2018-10-09T12:37:56.662Z,19.23
2018-10-09T12:38:56.664Z,19.60
2018-10-09T12:39:56.664Z,19.86
2018-10-09T12:40:56.661Z,19.91
2018-10-09T12:41:56.662Z,19.75
2018-10-09T12:42:56.666Z,19.50
2018-10-09T12:43:56.794Z,19.23
2018-10-09T12:44:56.669Z,19.24
2018-10-09T12:45:56.668Z,19.23
2018-10-09T12:46:56.670Z,19.38
2018-10-09T12:47:56.672Z,19.32
2018-10-09T12:48:56.668Z,19.08
2018-10-09T12:49:56.668Z,19.15
2018-10-09T12:50:56.668Z,19.06
2018-10-09T12:51:56.665Z,19.17
2018-10-09T12:52:56.720Z,19.20
2018-10-09T12:53:56.672Z,18.80
2018-10-09T12:54:56.665Z,18.72
2018-10-09T12:55:56.669Z,18.54
2018-10-09T12:56:56.673Z,18.72
2018-10-09T12:57:56.671Z,18.65
2018-10-09T12:58:56.676Z,18.92
2018-10-09T12:59:56.668Z,18.98
2018-10-09T13:00:56.665Z,18.97
2018-10-09T13:01:56.666Z,19.15
2018-10-09T13:02:56.708Z,19.06
2018-10-09T13:03:56.654Z,18.95
2018-10-09T13:04:56.662Z,18.86
2018-10-09T13:05:56.676Z,18.61
2018-10-09T13:06:56.659Z,18.52
2018-10-09T13:07:56.660Z,18.61
2018-10-09T13:08:56.657Z,18.64
2018-10-09T13:09:56.673Z,18.62
2018-10-09T13:10:56.657Z,18.64
2018-10-09T13:11:56.656Z,18.64
2018-10-09T13:12:56.695Z,18.47
2018-10-09T13:13:56.659Z,18.43
2018-10-09T13:14:56.653Z,18.29
2018-10-09T13:15:56.663Z,18.37
2018-10-09T13:16:56.650Z,18.40
2018-10-09T13:17:56.670Z,18.22
2018-10-09T13:18:56.645Z,18.24
2018-10-09T13:19:56.648Z,18.25
2018-10-09T13:20:56.673Z,18.27
2018-10-09T13:21:56.963Z,18.22
2018-10-09T13:22:56.695Z,18.18
2018-10-09T13:23:56.635Z,18.24
2018-10-09T13:24:56.637Z,18.25
2018-10-09T13:25:56.643Z,18.21
2018-10-09T13:26:56.677Z,18.21
2018-10-09T13:27:56.633Z,18.22
2018-10-09T13:28:56.661Z,18.12
2018-10-09T13:29:56.636Z,18.13
2018-10-09T13:30:56.689Z,18.24
2018-10-09T13:31:56.627Z,18.12
2018-10-09T13:32:56.623Z,18.10
2018-10-09T13:33:56.628Z,18.18
2018-10-09T13:34:56.822Z,18.12
2018-10-09T13:35:56.970Z,18.24
2018-10-09T13:36:57.012Z,18.21
2018-10-09T13:37:56.614Z,18.29
2018-10-09T13:38:56.617Z,18.31
2018-10-09T13:39:56.618Z,18.34
2018-10-09T13:40:56.658Z,18.27
2018-10-09T13:41:56.624Z,18.34
2018-10-09T13:42:56.605Z,18.19
2018-10-09T13:43:56.648Z,18.25
2018-10-09T13:44:56.619Z,18.25
2018-10-09T13:45:56.600Z,18.24
2018-10-09T13:46:56.596Z,18.13
2018-10-09T13:47:56.631Z,18.04
2018-10-09T13:48:56.587Z,18.02
2018-10-09T13:49:56.592Z,17.89
2018-10-09T13:50:56.628Z,17.94
2018-10-09T13:51:56.593Z,18.02
2018-10-09T13:52:56.585Z,18.10
2018-10-09T13:53:56.578Z,18.00
2018-10-09T13:54:56.577Z,18.03
2018-10-09T13:55:56.573Z,17.91
2018-10-09T13:56:56.585Z,17.87
2018-10-09T13:57:56.665Z,17.92